Time;durP1;ratioP1;P1;durP2;ratioP2;P2;SDS_P1;SDS_P2;PMS_P1;PMS_P2;Temp;Humidity;BMP_temperature;BMP_pressure;BME280_temperature;BME280_humidity;BME280_pressure;Samples;Min_cycle;Max_cycle;Signal;HPM_P1;HPM_P2
2021/01/23 00:00:36;;;;;;;;;;;;;;;0.93;81.45;98869.72;124346;1147;22695;-69
2021/01/23 00:03:03;;;;;;;27.90;14.75;;;;;;;0.91;81.68;98864.56;124083;1146;21425;-69
2021/01/23 00:05:30;;;;;;;23.77;15.03;;;;;;;0.91;81.17;98867.24;124417;1147;22744;-69
2021/01/23 00:08:01;;;;;;;24.75;16.25;;;;;;;0.89;81.54;98871.98;124113;1146;22721;-69
2021/01/23 00:10:30;;;;;;;24.57;15.50;;;;;;;0.88;81.66;98877.56;124471;1145;23181;-69
2021/01/23 00:12:58;;;;;;;24.25;14.80;;;;;;;0.88;81.86;98874.88;124136;1147;22854;-69
2021/01/23 00:15:25;;;;;;;30.00;14.20;;;;;;;0.88;80.84;98883.75;124338;1147;22718;-69
2021/01/23 00:17:52;;;;;;;24.40;14.95;;;;;;;0.90;81.29;98884.37;124218;1145;23395;-68
2021/01/23 00:20:20;;;;;;;26.27;15.27;;;;;;;0.91;80.73;98879.83;124314;1146;22717;-69
2021/01/23 00:22:47;;;;;;;;;;;;;;;0.91;81.57;98886.02;124285;1146;22719;-69
2021/01/23 00:25:14;;;;;;;27.05;15.85;;;;;;;0.91;81.38;98890.55;124271;1147;21917;-69
2021/01/23 00:27:41;;;;;;;26.90;16.40;;;;;;;0.89;80.78;98880.03;124204;1145;22704;-69
2021/01/23 00:30:09;;;;;;;28.30;16.55;;;;;;;0.86;80.79;98883.16;124349;1147;22710;-69
2021/01/23 00:32:36;;;;;;;23.53;15.53;;;;;;;0.84;80.76;98885.23;124439;1146;23156;-69
2021/01/23 00:35:03;;;;;;;23.93;14.20;;;;;;;0.83;81.59;98874.71;124289;1146;22718;-69
2021/01/23 00:37:31;;;;;;;25.25;15.00;;;;;;;0.79;81.66;98876.98;124389;1146;23516;-69
2021/01/23 00:39:58;;;;;;;22.43;13.83;;;;;;;0.78;81.46;98874.51;124085;1146;22714;-69
2021/01/23 00:42:25;;;;;;;22.20;14.35;;;;;;;0.78;81.29;98874.51;124509;1147;22697;-69
2021/01/23 00:44:52;;;;;;;22.05;13.65;;;;;;;0.79;81.49;98868.94;124124;1147;22691;-69
2021/01/23 00:47:19;;;;;;;22.65;13.35;;;;;;;0.79;81.46;98870.80;124337;1147;23530;-69
2021/01/23 00:49:46;;;;;;;24.10;13.50;;;;;;;0.78;81.12;98864.61;124070;1147;22693;-69
2021/01/23 00:52:14;;;;;;;24.10;14.67;;;;;;;0.77;81.31;98865.64;124194;1147;22727;-69
2021/01/23 00:54:41;;;;;;;22.63;14.50;;;;;;;0.76;81.61;98858.63;123960;1147;23907;-68
2021/01/23 00:57:08;;;;;;;22.50;15.30;;;;;;;0.76;81.76;98860.48;124200;1147;22769;-69
2021/01/23 00:59:35;;;;;;;24.77;14.00;;;;;;;0.73;80.85;98848.32;124144;1147;22789;-69
2021/01/23 01:02:03;;;;;;;27.20;15.95;;;;;;;0.73;81.58;98853.69;124362;1147;22707;-69
2021/01/23 01:04:35;;;;;;;27.55;15.50;;;;;;;0.72;81.27;98853.92;124145;1147;23820;-69
2021/01/23 01:07:02;;;;;;;20.75;13.65;;;;;;;0.70;81.48;98852.27;124360;1147;22743;-69
2021/01/23 01:09:30;;;;;;;21.50;14.10;;;;;;;0.70;80.85;98854.12;124102;1145;22719;-69
2021/01/23 01:11:57;;;;;;;27.55;13.95;;;;;;;0.70;80.82;98856.81;124396;1146;22778;-69
2021/01/23 01:14:24;;;;;;;25.87;15.03;;;;;;;0.72;81.53;98861.97;124248;1147;22697;-69
2021/01/23 01:16:51;;;;;;;27.15;14.75;;;;;;;0.73;81.81;98866.27;124283;1146;23701;-69
2021/01/23 01:19:19;;;;;;;22.73;13.47;;;;;;;0.73;81.14;98871.63;124423;1147;22699;-69
2021/01/23 01:21:46;;;;;;;24.47;13.73;;;;;;;0.74;82.14;98874.09;124164;1146;23546;-69
2021/01/23 01:24:13;;;;;;;25.43;14.63;;;;;;;0.74;81.21;98874.09;124254;1147;23637;-69
2021/01/23 01:26:40;;;;;;;24.65;13.95;;;;;;;0.73;81.03;98866.27;124217;1146;22687;-69
2021/01/23 01:29:07;;;;;;;;;;;;;;;0.73;81.70;98869.77;124447;1147;23226;-69
2021/01/23 01:31:33;;;;;;;21.20;12.40;;;;;;;0.72;81.35;98872.69;124143;1146;22062;-69
2021/01/23 01:34:01;;;;;;;23.60;14.13;;;;;;;0.68;81.71;98870.42;124283;1146;22693;-69
2021/01/23 01:36:28;;;;;;;22.27;14.20;;;;;;;0.68;80.92;98864.23;124358;1147;23403;-69
2021/01/23 01:38:55;;;;;;;;;;;;;;;0.69;80.63;98872.07;124313;1146;23476;-69
2021/01/23 01:41:21;;;;;;;24.40;13.17;;;;;;;0.68;81.75;98858.88;124279;1147;21487;-69
2021/01/23 01:43:48;;;;;;;29.35;16.75;;;;;;;0.66;81.21;98853.72;124424;1147;22709;-69
2021/01/23 01:46:15;;;;;;;28.10;17.30;;;;;;;0.65;81.91;98849.39;124162;1147;22755;-68
2021/01/23 01:48:43;;;;;;;32.60;18.60;;;;;;;0.65;81.57;98846.71;124183;1148;22818;-68
2021/01/23 01:51:10;;;;;;;26.20;15.20;;;;;;;0.65;81.90;98854.75;124143;1146;23467;-69
2021/01/23 01:53:41;;;;;;;29.60;17.25;;;;;;;0.65;82.09;98864.65;124304;1147;22711;-69
2021/01/23 01:56:08;;;;;;;46.33;22.37;;;;;;;0.63;82.14;98864.03;124289;1145;23324;-69
2021/01/23 01:58:36;;;;;;;38.50;18.00;;;;;;;0.62;81.77;98862.38;124424;1147;22704;-69
2021/01/23 02:01:03;;;;;;;31.60;16.25;;;;;;;0.66;82.31;98871.66;124213;1147;22789;-69
2021/01/23 02:04:00;;;;;;;26.43;13.27;;;;;;;0.68;82.19;98869.59;124219;1147;22709;-69
2021/01/23 02:06:52;;;;;;;34.60;18.10;;;;;;;0.69;81.38;98858.67;124358;1146;22693;-68
2021/01/23 02:09:54;;;;;;;38.50;17.45;;;;;;;0.71;81.53;98861.14;124449;1145;22685;-69
2021/01/23 02:12:33;;;;;;;23.00;14.30;;;;;;;0.73;81.72;98856.36;124336;1145;22723;-69
2021/01/23 02:15:04;;;;;;;34.47;17.83;;;;;;;0.74;82.26;98854.51;124637;1145;22701;-69
2021/01/23 02:18:03;;;;;;;28.47;16.37;;;;;;;0.74;81.16;98849.97;124329;1145;22731;-69
2021/01/23 02:20:54;;;;;;;27.30;15.80;;;;;;;0.74;81.42;98859.88;124463;1145;22791;-69
2021/01/23 02:23:24;;;;;;;27.90;15.70;;;;;;;0.73;82.27;98850.18;124294;1145;22723;-69
2021/01/23 02:26:10;;;;;;;32.13;16.77;;;;;;;0.73;82.20;98860.91;124403;1146;22731;-69
2021/01/23 02:29:21;;;;;;;26.97;13.37;;;;;;;0.76;81.09;98865.84;124321;1145;22716;-69
2021/01/23 02:31:51;;;;;;;25.70;13.10;;;;;;;0.77;82.08;98860.28;124511;1145;22714;-69
2021/01/23 02:34:19;;;;;;;20.90;13.10;;;;;;;0.79;81.67;98865.44;124287;1146;23531;-69
2021/01/23 02:36:46;;;;;;;18.37;12.30;;;;;;;0.80;81.08;98872.45;124408;1146;22703;-68
2021/01/23 02:39:14;;;;;;;;;;;;;;;0.81;81.57;98874.09;124337;1146;22762;-69
2021/01/23 02:41:43;;;;;;;;;;;;;;;0.82;81.92;98873.06;124472;1145;21418;-69
2021/01/23 02:44:10;;;;;;;22.70;12.47;;;;;;;0.81;81.92;98868.73;124416;1145;22399;-69
2021/01/23 02:46:37;;;;;;;23.85;14.60;;;;;;;0.78;81.93;98864.61;124599;1145;22897;-69
2021/01/23 02:49:04;;;;;;;23.13;13.37;;;;;;;0.79;81.18;98878.84;124359;1145;22741;-69
2021/01/23 02:51:53;;;;;;;23.40;14.00;;;;;;;0.75;80.95;98875.75;124530;1145;23260;-69
2021/01/23 02:54:26;;;;;;;23.90;14.65;;;;;;;0.76;81.49;98884.62;124211;1146;24124;-69
2021/01/23 02:56:54;;;;;;;25.43;15.00;;;;;;;0.75;81.80;98882.97;124417;1145;22709;-69
2021/01/23 02:59:21;;;;;;;21.40;14.30;;;;;;;0.76;81.67;98871.21;124352;1146;23582;-69
2021/01/23 03:01:49;;;;;;;23.60;13.20;;;;;;;0.73;81.48;98883.17;124500;1145;22707;-69
2021/01/23 03:04:16;;;;;;;24.00;13.35;;;;;;;0.73;81.83;98874.31;124278;1146;23642;-69
2021/01/23 03:06:43;;;;;;;18.73;12.90;;;;;;;0.71;81.48;98885.27;124421;1146;24040;-69
2021/01/23 03:09:19;;;;;;;;;;;;;;;0.69;80.80;98893.52;124422;1145;27301;-69
2021/01/23 03:11:48;;;;;;;22.30;13.15;;;;;;;0.67;81.96;98895.58;124521;1145;21422;-69
2021/01/23 03:14:15;;;;;;;24.60;14.20;;;;;;;0.67;81.47;98889.39;124374;1145;22834;-69
2021/01/23 03:16:54;;;;;;;23.30;14.33;;;;;;;0.64;80.69;98887.13;124489;1146;22721;-69
2021/01/23 03:19:22;;;;;;;23.30;14.15;;;;;;;0.62;80.64;98881.97;124323;1145;22703;-69
2021/01/23 03:21:50;;;;;;;21.30;13.00;;;;;;;0.61;81.34;98879.50;124708;1142;22663;-69
2021/01/23 03:24:21;;;;;;;19.45;12.95;;;;;;;0.58;81.54;98883.41;124740;1143;22798;-69
2021/01/23 03:26:48;;;;;;;23.55;12.85;;;;;;;0.58;80.87;98880.73;124459;1144;22693;-68
2021/01/23 03:29:16;;;;;;;21.60;13.60;;;;;;;0.57;80.66;98872.94;124588;1142;22810;-69
2021/01/23 03:31:47;;;;;;;24.50;13.60;;;;;;;0.57;80.46;98872.94;124375;1144;22726;-69
2021/01/23 03:34:14;;;;;;;21.45;12.90;;;;;;;0.58;80.61;98877.23;124515;1143;22727;-69
2021/01/23 03:36:42;;;;;;;20.30;12.25;;;;;;;0.57;81.70;98875.61;124492;1144;22765;-69
2021/01/23 03:39:09;;;;;;;22.17;13.67;;;;;;;0.57;80.37;98873.75;124677;1142;22732;-69
2021/01/23 03:41:36;;;;;;;24.77;15.20;;;;;;;0.58;80.88;98874.55;124357;1143;23109;-69
2021/01/23 03:44:03;;;;;;;18.67;12.47;;;;;;;0.56;80.63;98865.92;124610;1144;22700;-69
2021/01/23 03:46:32;;;;;;;22.80;13.60;;;;;;;0.53;80.70;98863.66;124511;1143;22697;-69
2021/01/23 03:48:59;;;;;;;25.80;15.30;;;;;;;0.52;81.05;98870.05;124481;1144;22742;-69
2021/01/23 03:51:26;;;;;;;28.83;16.20;;;;;;;0.51;80.66;98873.75;124615;1142;23547;-69
2021/01/23 03:53:53;;;;;;;25.60;15.10;;;;;;;0.48;81.85;98871.48;124565;1144;22692;-69
2021/01/23 03:56:20;;;;;;;;;;;;;;;0.46;81.56;98869.02;124645;1143;22752;-69
2021/01/23 03:58:48;;;;;;;23.40;14.25;;;;;;;0.44;80.90;98872.93;124668;1144;21424;-68
2021/01/23 04:01:14;;;;;;;41.47;19.43;;;;;;;0.41;81.39;98865.33;124494;1144;23332;-69
2021/01/23 04:03:42;;;;;;;52.15;22.00;;;;;;;0.37;80.83;98867.59;124714;1144;22700;-69
2021/01/23 04:06:09;;;;;;;28.03;16.47;;;;;;;0.35;80.61;98881.20;124433;1143;22726;-68
2021/01/23 04:08:36;;;;;;;24.70;14.63;;;;;;;0.32;81.68;98878.93;124585;1143;22751;-68
2021/01/23 04:11:03;;;;;;;23.27;13.57;;;;;;;0.31;82.10;98877.28;124493;1144;23431;-69
2021/01/23 04:13:30;;;;;;;;;;;;;;;0.31;80.81;98885.31;124622;1143;22711;-69
2021/01/23 04:15:57;;;;;;;22.05;12.90;;;;;;;0.31;80.87;98885.31;124779;1142;21395;-69
2021/01/23 04:18:24;;;;;;;23.90;13.53;;;;;;;0.30;81.58;98878.31;124632;1144;22667;-69
2021/01/23 04:20:51;;;;;;;;;;;;;;;0.28;81.34;98885.76;124614;1144;22711;-68
2021/01/23 04:23:18;;;;;;;24.40;14.73;;;;;;;0.25;81.22;98880.81;124541;1142;21409;-69
2021/01/23 04:25:45;;;;;;;21.17;13.70;;;;;;;0.24;81.80;98881.84;124614;1144;22728;-69
2021/01/23 04:28:14;;;;;;;21.37;13.80;;;;;;;0.24;81.24;98881.02;124325;1144;23018;-69
2021/01/23 04:30:42;;;;;;;20.73;13.57;;;;;;;0.25;81.11;98875.45;124558;1144;22655;-69
2021/01/23 04:33:10;;;;;;;19.80;12.80;;;;;;;0.25;81.25;98874.63;124356;1144;22728;-69
2021/01/23 04:35:37;;;;;;;22.47;13.10;;;;;;;0.25;81.24;98872.77;124743;1144;22715;-68
2021/01/23 04:38:04;;;;;;;24.63;14.70;;;;;;;0.25;81.21;98866.59;124517;1144;22714;-69
2021/01/23 04:40:31;;;;;;;21.70;14.20;;;;;;;0.22;81.11;98870.50;124545;1143;22709;-69
2021/01/23 04:42:58;;;;;;;;;;;;;;;0.20;81.97;98869.88;124256;1144;22699;-69
2021/01/23 04:45:25;;;;;;;25.30;13.03;;;;;;;0.21;82.24;98871.53;124678;1143;21440;-69
2021/01/23 04:47:53;;;;;;;22.07;14.27;;;;;;;0.23;81.61;98874.00;124587;1142;22699;-68
2021/01/23 04:50:21;;;;;;;24.97;13.77;;;;;;;0.24;81.39;98871.12;124624;1143;22698;-69
2021/01/23 04:52:48;;;;;;;22.67;13.53;;;;;;;0.25;81.48;98872.77;124605;1142;22721;-68
2021/01/23 04:55:15;;;;;;;23.23;14.57;;;;;;;0.26;81.05;98878.95;124677;1143;22737;-69
2021/01/23 04:57:43;;;;;;;23.47;14.23;;;;;;;0.27;81.76;98880.60;124501;1144;23357;-69
2021/01/23 05:00:12;;;;;;;20.95;13.55;;;;;;;0.27;81.19;98876.07;124543;1144;22700;-69
2021/01/23 05:02:40;;;;;;;25.53;14.13;;;;;;;0.25;82.20;98880.81;124677;1144;22746;-69
2021/01/23 05:05:08;;;;;;;20.40;13.40;;;;;;;0.27;81.94;98884.11;124326;1145;22738;-69
2021/01/23 05:07:39;;;;;;;23.20;14.33;;;;;;;0.26;81.87;98890.50;124639;1142;22788;-69
2021/01/23 05:10:23;;;;;;;24.90;14.27;;;;;;;0.27;81.78;98886.78;124619;1144;22737;-69
2021/01/23 05:12:51;;;;;;;24.37;14.73;;;;;;;0.25;80.83;98891.52;124623;1143;24043;-68
2021/01/23 05:15:28;;;;;;;29.33;16.30;;;;;;;0.24;81.37;98889.88;124557;1144;22754;-69
2021/01/23 05:17:56;;;;;;;;;;;;;;;0.22;80.96;98901.82;124596;1142;22705;-69
2021/01/23 05:20:40;;;;;;;21.30;12.75;;;;;;;0.21;81.01;98895.64;124313;1144;21486;-68
2021/01/23 05:23:12;;;;;;;21.30;13.27;;;;;;;0.20;81.56;98898.52;124510;1145;22758;-69
2021/01/23 05:25:41;;;;;;;19.63;12.17;;;;;;;0.20;81.98;98899.34;124337;1145;23304;-68
2021/01/23 05:28:13;;;;;;;21.20;13.60;;;;;;;0.19;81.96;98895.02;124703;1144;22927;-68
2021/01/23 05:30:44;;;;;;;22.37;13.57;;;;;;;0.18;81.99;98888.01;124545;1143;22711;-68
2021/01/23 05:33:16;;;;;;;20.73;13.07;;;;;;;0.16;81.16;98876.67;124680;1144;22741;-68
2021/01/23 05:35:44;;;;;;;23.60;14.35;;;;;;;0.15;81.75;98884.91;124512;1143;23502;-68
2021/01/23 05:38:18;;;;;;;20.53;12.83;;;;;;;0.13;81.10;98876.28;124700;1143;22696;-69
2021/01/23 05:40:45;;;;;;;23.27;15.00;;;;;;;0.13;81.66;98893.18;124547;1143;23946;-69
2021/01/23 05:43:12;;;;;;;27.10;13.57;;;;;;;0.12;81.76;98898.73;124722;1143;22749;-69
2021/01/23 05:45:48;;;;;;;20.00;13.20;;;;;;;0.11;82.05;98894.41;124545;1143;22709;-69
2021/01/23 05:48:16;;;;;;;21.30;13.00;;;;;;;0.09;81.37;98899.15;124511;1144;22698;-68
2021/01/23 05:50:43;;;;;;;22.83;13.40;;;;;;;0.08;81.13;98901.00;124391;1144;22704;-68
2021/01/23 05:53:10;;;;;;;22.03;14.37;;;;;;;0.07;82.18;98902.02;124767;1143;22791;-68
2021/01/23 05:55:37;;;;;;;23.67;14.53;;;;;;;0.07;82.50;98904.70;123517;1144;22920;-68
2021/01/23 05:58:04;;;;;;;28.00;16.07;;;;;;;0.07;82.06;98899.34;120293;1144;22939;-68
2021/01/23 06:00:31;;;;;;;24.13;14.50;;;;;;;0.08;81.40;98894.81;124316;1144;22848;-68
2021/01/23 06:02:59;;;;;;;22.50;14.03;;;;;;;0.06;82.28;98888.84;124383;1144;22692;-68
2021/01/23 06:05:26;;;;;;;24.97;15.60;;;;;;;0.08;81.13;98909.03;124412;1145;22746;-68
2021/01/23 06:07:53;;;;;;;26.60;15.07;;;;;;;0.07;81.58;98904.70;124224;1145;22924;-68
2021/01/23 06:10:23;;;;;;;26.27;15.43;;;;;;;0.08;82.54;98906.36;124561;1144;22680;-68
2021/01/23 06:12:54;;;;;;;27.03;15.43;;;;;;;0.09;82.11;98909.86;124350;1144;22707;-68
2021/01/23 06:15:37;;;;;;;26.70;15.50;;;;;;;0.07;81.96;98917.27;124567;1144;22707;-68
2021/01/23 06:18:22;;;;;;;29.53;16.13;;;;;;;0.05;82.34;98917.47;124569;1144;23137;-68
2021/01/23 06:20:50;;;;;;;29.57;15.23;;;;;;;0.04;81.51;98921.17;124546;1142;22807;-72
2021/01/23 06:23:20;;;;;;;27.50;15.87;;;;;;;0.03;81.39;98914.17;124503;1143;22705;-73
2021/01/23 06:25:49;;;;;;;27.83;15.77;;;;;;;0.04;81.46;98915.82;124625;1144;23368;-67
2021/01/23 06:28:22;;;;;;;26.37;14.50;;;;;;;0.06;81.12;98911.09;124292;1144;23516;-66
2021/01/23 06:30:49;;;;;;;22.73;14.13;;;;;;;0.07;81.89;98915.42;124690;1143;22731;-67
2021/01/23 06:33:22;;;;;;;25.77;15.30;;;;;;;0.06;82.16;98924.48;124100;1145;22739;-65
2021/01/23 06:36:02;;;;;;;23.85;14.80;;;;;;;0.06;81.23;98919.13;124386;1145;22712;-66
2021/01/23 06:38:30;;;;;;;30.63;15.43;;;;;;;0.08;82.60;98927.78;124284;1144;23498;-63
2021/01/23 06:41:25;;;;;;;28.50;17.07;;;;;;;0.11;81.64;98927.37;124620;1144;22701;-65
2021/01/23 06:44:18;;;;;;;30.30;17.75;;;;;;;0.12;82.08;98926.34;124530;1143;22678;-65
2021/01/23 06:46:48;;;;;;;30.27;17.73;;;;;;;0.14;81.96;98916.26;124547;1143;22681;-65
2021/01/23 06:49:15;;;;;;;29.27;16.80;;;;;;;0.15;81.99;98922.41;124260;1145;22702;-66
2021/01/23 06:51:43;;;;;;;27.45;16.15;;;;;;;0.17;81.16;98933.75;124473;1143;23338;-66
2021/01/23 06:54:10;;;;;;;26.03;16.93;;;;;;;0.17;81.68;98929.22;124366;1143;23308;-63
2021/01/23 06:56:37;;;;;;;27.40;16.63;;;;;;;0.20;81.99;98917.27;124434;1144;22718;-65
2021/01/23 06:59:04;;;;;;;32.33;18.60;;;;;;;0.19;82.38;98908.41;124411;1144;22757;-65
2021/01/23 07:01:31;;;;;;;;;;;;;;;0.20;81.30;98910.06;124472;1144;22782;-65
2021/01/23 07:03:58;;;;;;;31.70;17.87;;;;;;;0.22;81.06;98913.36;124380;1143;21424;-66
2021/01/23 07:06:28;;;;;;;;;;;;;;;0.25;81.52;98912.13;122153;1144;23014;-66
2021/01/23 07:08:55;;;;;;;31.50;14.67;;;;;;;0.28;82.38;98915.23;124477;1143;21481;-67
2021/01/23 07:11:22;;;;;;;24.87;14.87;;;;;;;0.32;81.59;98921.80;124596;1144;22732;-66
2021/01/23 07:14:02;;;;;;;24.93;16.03;;;;;;;0.37;82.69;98925.72;124414;1143;22713;-67
2021/01/23 07:16:32;;;;;;;27.90;14.77;;;;;;;0.43;81.16;98927.59;124568;1144;23813;-66
2021/01/23 07:19:04;;;;;;;28.23;15.93;;;;;;;0.50;81.64;98923.03;124319;1144;22731;-67
2021/01/23 07:21:32;;;;;;;26.00;15.25;;;;;;;0.56;82.04;98930.25;124674;1143;22727;-66
2021/01/23 07:23:59;;;;;;;27.70;14.90;;;;;;;0.61;82.24;98925.06;124381;1143;22726;-64
2021/01/23 07:26:26;;;;;;;25.77;16.47;;;;;;;0.67;81.10;98919.70;124689;1143;23350;-64
2021/01/23 07:28:57;;;;;;;25.33;16.13;;;;;;;0.72;81.11;98926.31;124565;1143;22713;-65
2021/01/23 07:31:31;;;;;;;28.10;17.40;;;;;;;0.76;80.65;98922.16;124543;1144;23387;-64
2021/01/23 07:33:59;;;;;;;51.40;25.00;;;;;;;0.80;81.03;98920.70;124551;1144;23554;-65
2021/01/23 07:36:33;;;;;;;36.70;20.35;;;;;;;0.84;81.80;98911.22;124591;1143;23312;-65
2021/01/23 07:39:03;;;;;;;64.47;35.60;;;;;;;0.87;80.60;98908.91;124679;1144;22661;-65
2021/01/23 07:41:31;;;;;;;37.05;22.15;;;;;;;0.90;80.61;98913.87;124498;1142;22761;-64
2021/01/23 07:43:59;;;;;;;32.17;18.93;;;;;;;0.94;80.60;98916.95;124532;1144;22762;-65
2021/01/23 07:46:33;;;;;;;28.35;17.30;;;;;;;0.98;80.44;98919.02;124456;1143;23989;-66
2021/01/23 07:49:01;;;;;;;25.97;16.37;;;;;;;1.03;81.35;98927.23;124567;1144;22679;-66
2021/01/23 07:51:28;;;;;;;29.50;17.00;;;;;;;1.10;80.12;98931.77;124374;1144;22818;-66
2021/01/23 07:54:25;;;;;;;26.80;16.00;;;;;;;1.15;80.15;98937.33;124649;1144;22705;-66
2021/01/23 07:56:59;;;;;;;29.30;17.00;;;;;;;1.21;80.71;98939.97;124008;1149;22875;-65
2021/01/23 07:59:45;;;;;;;26.40;17.03;;;;;;;1.28;80.96;98945.33;124116;1148;22781;-65
2021/01/23 08:02:18;;;;;;;34.45;20.05;;;;;;;1.33;79.67;98951.69;123974;1148;22740;-67
2021/01/23 08:04:47;;;;;;;30.10;18.90;;;;;;;1.40;80.70;98954.36;124059;1148;22752;-68
2021/01/23 08:07:31;;;;;;;33.70;19.05;;;;;;;1.44;79.73;98944.85;120056;1149;23123;-67
2021/01/23 08:10:12;;;;;;;30.60;19.05;;;;;;;1.47;79.67;98957.00;119313;1149;26380;-66
2021/01/23 08:13:00;;;;;;;33.85;19.40;;;;;;;1.52;80.00;98952.65;123971;1149;22728;-67
2021/01/23 08:15:28;;;;;;;31.67;18.10;;;;;;;1.59;78.96;98952.60;124071;1149;23740;-65
2021/01/23 08:17:56;;;;;;;34.70;20.23;;;;;;;1.64;80.15;98942.05;123926;1148;22782;-65
2021/01/23 08:20:29;;;;;;;29.50;16.70;;;;;;;1.68;79.22;98927.99;124131;1149;22856;-65
2021/01/23 08:23:09;;;;;;;26.60;16.77;;;;;;;1.75;79.14;98941.37;123941;1149;22860;-66
2021/01/23 08:25:38;;;;;;;29.63;17.83;;;;;;;1.78;79.05;98946.31;124100;1149;22738;-68
2021/01/23 08:28:06;;;;;;;27.10;16.45;;;;;;;1.82;78.82;98952.08;123913;1149;22825;-66
2021/01/23 08:30:33;;;;;;;35.07;19.80;;;;;;;1.87;78.79;98944.21;124045;1149;22761;-67
2021/01/23 08:33:04;;;;;;;35.90;19.73;;;;;;;1.90;79.14;98938.38;124023;1145;22723;-66
2021/01/23 08:35:33;;;;;;;30.45;18.70;;;;;;;1.93;78.64;98936.09;124455;1145;22713;-66
2021/01/23 08:38:00;;;;;;;25.95;16.60;;;;;;;1.97;78.45;98937.31;124383;1144;22729;-66
2021/01/23 08:40:27;;;;;;;33.27;17.73;;;;;;;2.01;78.29;98935.03;124648;1143;23314;-65
2021/01/23 08:42:54;;;;;;;27.63;16.80;;;;;;;2.05;78.19;98931.66;124285;1144;22666;-65
2021/01/23 08:45:23;;;;;;;27.17;17.03;;;;;;;2.11;78.36;98929.98;124482;1143;22714;-66
2021/01/23 08:47:50;;;;;;;35.05;20.40;;;;;;;2.15;77.33;98928.52;124571;1142;22768;-66
2021/01/23 08:50:17;;;;;;;49.57;25.20;;;;;;;2.22;77.73;98929.27;124811;1142;22813;-67
2021/01/23 08:52:44;;;;;;;37.75;19.25;;;;;;;2.26;78.10;98933.17;124464;1143;22722;-66
2021/01/23 08:55:11;;;;;;;43.90;25.60;;;;;;;2.30;77.43;98939.77;124616;1144;23359;-63
2021/01/23 08:57:38;;;;;;;37.97;22.53;;;;;;;2.33;77.70;98933.93;124356;1143;22705;-64
2021/01/23 09:00:10;;;;;;;36.70;21.90;;;;;;;2.37;77.42;98929.77;124644;1144;22722;-65
2021/01/23 09:02:37;;;;;;;35.53;21.77;;;;;;;2.42;76.92;98929.13;124528;1142;22701;-68
2021/01/23 09:05:05;;;;;;;37.23;19.67;;;;;;;2.44;77.22;98933.24;124519;1144;23359;-65
2021/01/23 09:07:32;;;;;;;35.30;20.73;;;;;;;2.51;76.75;98937.72;124741;1142;22873;-65
2021/01/23 09:09:59;;;;;;;42.15;24.30;;;;;;;2.53;76.47;98928.39;124402;1144;23563;-67
2021/01/23 09:12:26;;;;;;;38.83;23.17;;;;;;;2.56;76.57;98927.14;124751;1144;22720;-65
2021/01/23 09:14:53;;;;;;;33.50;20.53;;;;;;;2.57;76.80;98926.92;124561;1144;22694;-66
2021/01/23 09:17:20;;;;;;;33.33;18.97;;;;;;;2.62;76.54;98926.23;120321;1144;22915;-67
2021/01/23 09:19:48;;;;;;;31.00;18.30;;;;;;;2.66;76.78;98922.07;119821;1144;22942;-68
2021/01/23 09:22:15;;;;;;;30.85;16.90;;;;;;;2.72;76.41;98923.88;119898;1144;24463;-65
2021/01/23 09:24:43;;;;;;;29.27;16.13;;;;;;;2.73;76.33;98906.70;119796;1144;26421;-67
2021/01/23 09:27:10;;;;;;;30.40;18.90;;;;;;;2.79;76.50;98905.80;119884;1144;23029;-66
2021/01/23 09:29:39;;;;;;;27.87;18.30;;;;;;;2.84;76.17;98914.03;119788;1144;22896;-67
2021/01/23 09:32:06;;;;;;;29.47;17.97;;;;;;;2.88;75.92;98914.41;124722;1144;22729;-68
2021/01/23 09:34:34;;;;;;;30.17;17.93;;;;;;;2.93;75.75;98914.55;124497;1144;22753;-68
2021/01/23 09:37:02;;;;;;;29.55;17.85;;;;;;;2.95;75.94;98913.28;124637;1143;22681;-68
2021/01/23 09:39:30;;;;;;;31.60;17.73;;;;;;;2.97;75.43;98913.89;124500;1144;22740;-67
2021/01/23 09:41:58;;;;;;;25.50;17.33;;;;;;;3.01;75.55;98909.71;124618;1144;22701;-66
2021/01/23 09:44:25;;;;;;;30.35;18.00;;;;;;;3.05;75.49;98907.37;124409;1144;24067;-68
2021/01/23 09:46:53;;;;;;;27.25;16.60;;;;;;;3.09;75.66;98916.65;124646;1144;22683;-68
2021/01/23 09:49:20;;;;;;;32.00;17.57;;;;;;;3.13;74.85;98913.30;124537;1143;22719;-68
2021/01/23 09:51:48;;;;;;;25.20;15.70;;;;;;;3.20;75.62;98915.89;124539;1144;27208;-68
2021/01/23 09:54:15;;;;;;;29.35;15.65;;;;;;;3.25;75.02;98917.91;124619;1144;22676;-68
2021/01/23 09:57:03;;;;;;;25.80;16.50;;;;;;;3.29;74.81;98919.94;124486;1144;22718;-68
2021/01/23 09:59:30;;;;;;;25.10;16.45;;;;;;;3.33;74.62;98922.98;124553;1143;22732;-66
2021/01/23 10:01:58;;;;;;;27.40;16.70;;;;;;;3.38;74.55;98920.44;124315;1143;22718;-68
2021/01/23 10:04:26;;;;;;;23.70;15.47;;;;;;;3.42;74.43;98927.03;124566;1143;22707;-68
2021/01/23 10:06:54;;;;;;;35.10;21.75;;;;;;;3.45;74.51;98927.41;124421;1144;22668;-67
2021/01/23 10:09:21;;;;;;;32.73;19.20;;;;;;;3.48;74.22;98926.93;124342;1145;23444;-68
2021/01/23 10:11:49;;;;;;;30.25;19.00;;;;;;;3.53;74.33;98929.77;124253;1145;22697;-67
2021/01/23 10:14:16;;;;;;;29.55;18.15;;;;;;;3.56;73.83;98931.20;124342;1145;25023;-66
2021/01/23 10:16:43;;;;;;;36.10;20.30;;;;;;;3.59;73.86;98928.05;121262;1145;22913;-64
2021/01/23 10:22:01;;;;;;;43.60;21.53;;;;;;;3.64;73.51;98921.96;119748;1148;22906;-65
2021/01/23 10:24:28;;;;;;;33.10;20.45;;;;;;;3.66;73.57;98911.78;119925;1148;22923;-65
2021/01/23 10:26:55;;;;;;;35.90;19.73;;;;;;;3.68;73.31;98907.82;124242;1146;24036;-65
2021/01/23 10:29:23;;;;;;;28.97;17.47;;;;;;;3.74;73.66;98904.22;124344;1147;22759;-65
2021/01/23 10:31:50;;;;;;;26.85;16.95;;;;;;;3.78;73.52;98902.69;124317;1147;22686;-65
2021/01/23 10:34:18;;;;;;;30.85;17.95;;;;;;;3.83;73.29;98902.84;124324;1147;22662;-65
2021/01/23 10:36:46;;;;;;;53.15;27.80;;;;;;;3.88;73.05;98896.77;124272;1147;22681;-66
2021/01/23 10:39:13;;;;;;;38.65;22.45;;;;;;;3.93;73.14;98898.75;124428;1147;22694;-64
2021/01/23 10:41:40;;;;;;;33.10;21.65;;;;;;;3.95;73.08;98897.47;124344;1146;23360;-65
2021/01/23 10:44:08;;;;;;;33.95;19.45;;;;;;;4.00;72.90;98896.80;124511;1147;22685;-64
2021/01/23 10:46:35;;;;;;;31.40;20.40;;;;;;;4.03;72.95;98907.12;124340;1147;22649;-65
2021/01/23 10:49:03;;;;;;;27.70;17.60;;;;;;;4.04;72.44;98897.98;124361;1147;22652;-64
2021/01/23 10:51:31;;;;;;;28.15;17.55;;;;;;;4.03;72.23;98902.55;124349;1147;22679;-65
2021/01/23 10:53:58;;;;;;;27.70;17.95;;;;;;;4.05;72.59;98897.72;124248;1147;22690;-65
2021/01/23 10:56:27;;;;;;;28.95;18.90;;;;;;;4.05;72.43;98900.42;124374;1146;23536;-64
2021/01/23 10:59:00;;;;;;;26.03;18.17;;;;;;;4.06;72.39;98885.89;124292;1147;23232;-65
2021/01/23 11:01:31;;;;;;;34.50;19.70;;;;;;;4.04;71.75;98881.81;124397;1147;22767;-65
2021/01/23 11:03:59;;;;;;;30.10;18.37;;;;;;;4.03;71.83;98869.39;124337;1147;22723;-65
2021/01/23 11:06:26;;;;;;;34.15;19.15;;;;;;;4.05;72.00;98862.69;124458;1145;22795;-64
2021/01/23 11:08:53;;;;;;;30.40;18.95;;;;;;;4.09;72.00;98865.75;124265;1146;22674;-65
2021/01/23 11:11:21;;;;;;;25.60;16.65;;;;;;;4.11;72.16;98855.55;124494;1147;22697;-65
2021/01/23 11:13:49;;;;;;;27.77;17.03;;;;;;;4.15;72.13;98848.66;124390;1147;22652;-65
2021/01/23 11:16:17;;;;;;;33.50;18.00;;;;;;;4.19;72.04;98855.20;124567;1145;22679;-65
2021/01/23 11:18:46;;;;;;;27.35;17.10;;;;;;;4.22;72.22;98843.95;124359;1146;22620;-65
2021/01/23 11:21:13;;;;;;;26.17;17.73;;;;;;;4.23;71.56;98848.30;124418;1146;22920;-65
2021/01/23 11:23:41;;;;;;;30.60;18.40;;;;;;;4.22;71.54;98847.47;124282;1146;22776;-65
2021/01/23 11:26:08;;;;;;;27.50;18.50;;;;;;;4.21;71.25;98845.83;122717;1145;24869;-64
2021/01/23 11:28:36;;;;;;;27.30;18.07;;;;;;;4.19;71.52;98852.50;119950;1147;23008;-64
2021/01/23 11:31:05;;;;;;;24.45;16.75;;;;;;;4.17;71.29;98846.55;124422;1145;22669;-65
2021/01/23 11:33:33;;;;;;;29.27;17.70;;;;;;;4.14;70.98;98853.22;124319;1145;22724;-65
2021/01/23 11:36:02;;;;;;;29.85;18.35;;;;;;;4.12;71.16;98849.11;124391;1146;22649;-65